Time;durP1;ratioP1;P1;durP2;ratioP2;P2;SDS_P1;SDS_P2;PMS_P1;PMS_P2;Temp;Humidity;BMP_temperature;BMP_pressure;BME280_temperature;BME280_humidity;BME280_pressure;Samples;Min_cycle;Max_cycle;Signal;HPM_P1;HPM_P2
2023/03/27 00:02:17;;;;;;;;;;;;;;;;;;5081171;28;4725;-63
2023/03/27 00:04:43;;;;;;;;;;;;;;;;;;5085836;28;4776;-63
2023/03/27 00:07:08;;;;;;;;;;;;;;;;;;5077512;28;5090;-63
2023/03/27 00:09:35;;;;;;;;;;;;;;;;;;5082780;28;4887;-63
2023/03/27 00:12:01;;;;;;;;;;;;;;;;;;5068685;28;4898;-66
2023/03/27 00:14:27;;;;;;;;;;;;;;;;;;5073755;28;4568;-63
2023/03/27 00:16:52;;;;;;;;;;;;;;;;;;5084030;28;4925;-64
2023/03/27 00:19:17;;;;;;;;;;;;;;;;;;5069543;28;3465;-63
2023/03/27 00:21:43;;;;;;;;;;;;;;;;;;5080295;28;4431;-63
2023/03/27 00:24:09;;;;;;;;;;;;;;;;;;5083710;28;4446;-63
2023/03/27 00:26:35;;;;;;;;;;;;;;;;;;5072191;28;4943;-63
2023/03/27 00:29:00;;;;;;;;;;;;;;;;;;5071979;28;4635;-63
2023/03/27 00:31:25;;;;;;;;;;;;;;;;;;5076377;28;3557;-63
2023/03/27 00:33:51;;;;;;;;;;;;;;;;;;5070608;28;4990;-64
2023/03/27 00:36:16;;;;;;;;;;;;;;;;;;5072923;28;5034;-63
2023/03/27 00:38:42;;;;;;;;;;;;;;;;;;5075854;28;4522;-64
2023/03/27 00:41:07;;;;;;;;;;;;;;;;;;5072593;28;4740;-63
2023/03/27 00:43:33;;;;;;;;;;;;;;;;;;5076388;28;1233;-63
2023/03/27 00:46:07;;;;;;;;;;;;;;;;;;5080767;28;5071;-63
2023/03/27 00:48:32;;;;;;;;;;;;;;;;;;5103551;28;4482;-63
2023/03/27 00:50:57;;;;;;;;;;;;;;;;;;5082983;28;5460;-63
2023/03/27 00:53:26;;;;;;;;;;;;;;;;;;5068944;28;5052;-63
2023/03/27 00:55:52;;;;;;;;;;;;;;;;;;5106892;27;4816;-64
2023/03/27 00:58:22;;;;;;;;;;;;;;;;;;5075015;28;3047;-63
2023/03/27 01:00:48;;;;;;;;;;;;;;;;;;5113231;27;4445;-63
2023/03/27 01:03:13;;;;;;;;;;;;;;;;;;5115156;27;4716;-63
2023/03/27 01:05:38;;;;;;;;;;;;;;;;;;5076289;28;4792;-63
2023/03/27 01:08:04;;;;;;;;;;;;;;;;;;5065543;28;4973;-63
2023/03/27 01:10:32;;;;;;;;;;;;;;;;;;5074586;28;1156;-63
2023/03/27 01:12:59;;;;;;;;;;;;;;;;;;5063411;28;4827;-62
2023/03/27 01:15:24;;;;;;;;;;;;;;;;;;5076467;28;4450;-62
2023/03/27 01:17:58;;;;;;;;;;;;;;;;;;5069341;28;4649;-63
2023/03/27 01:20:31;;;;;;;;;;;;;;;;;;5102500;27;4456;-63
2023/03/27 01:23:34;;;;;;;;;;;;;;;;;;5071698;28;5096;-62
2023/03/27 01:26:00;;;;;;;;;;;;;;;;;;5045854;28;5217;-62
2023/03/27 01:28:41;;;;;;;;;;;;;;;;;;5050356;28;2963;-63
2023/03/27 01:31:09;;;;;;;;;;;;;;;;;;5065017;28;4434;-63
2023/03/27 01:33:54;;;;;;;;;;;;;;;;;;5069884;28;4682;-63
2023/03/27 01:36:29;;;;;;;;;;;;;;;;;;5069942;28;4729;-64
2023/03/27 01:38:54;;;;;;;;;;;;;;;;;;5111162;27;4915;-63
2023/03/27 01:41:30;;;;;;;;;;;;;;;;;;5077345;28;4653;-63
2023/03/27 01:43:57;;;;;;;;;;;;;;;;;;5076883;28;5186;-64
2023/03/27 01:46:25;;;;;;;;;;;;;;;;;;5070547;28;3150;-64
2023/03/27 01:48:50;;;;;;;;;;;;;;;;;;5096290;27;4790;-63
2023/03/27 01:51:18;;;;;;;;;;;;;;;;;;5074516;27;4562;-66
2023/03/27 01:53:55;;;;;;;;;;;;;;;;;;5082551;28;5053;-63
2023/03/27 01:56:30;;;;;;;;;;;;;;;;;;5070547;28;4566;-64
2023/03/27 01:59:02;;;;;;;;;;;;;;;;;;5064890;28;5000;-63
2023/03/27 02:01:30;;;;;;;;;;;;;;;;;;5082578;28;3200;-62
2023/03/27 02:03:56;;;;;;;;;;;;;;;;;;5076817;28;4999;-63
2023/03/27 02:06:40;;;;;;;;;;;;;;;;;;5070975;28;4518;-63
2023/03/27 02:09:22;;;;;;;;;;;;;;;;;;5111590;27;5007;-63
2023/03/27 02:11:50;;;;;;;;;;;;;;;;;;5078216;28;4582;-64
2023/03/27 02:14:17;;;;;;;;;;;;;;;;;;5082207;28;4623;-66
2023/03/27 02:16:44;;;;;;;;;;;;;;;;;;5078031;28;3235;-63
2023/03/27 02:19:21;;;;;;;;;;;;;;;;;;5101567;27;4569;-62
2023/03/27 02:21:46;;;;;;;;;;;;;;;;;;5107400;27;5004;-65
2023/03/27 02:24:14;;;;;;;;;;;;;;;;;;5073443;28;4559;-63
2023/03/27 02:26:40;;;;;;;;;;;;;;;;;;5072383;28;5113;-63
2023/03/27 02:29:08;;;;;;;;;;;;;;;;;;5071532;28;4570;-62
2023/03/27 02:31:36;;;;;;;;;;;;;;;;;;5076112;28;3255;-63
2023/03/27 02:34:22;;;;;;;;;;;;;;;;;;5072627;28;4590;-62
2023/03/27 02:36:53;;;;;;;;;;;;;;;;;;5068859;28;4452;-63
2023/03/27 02:39:47;;;;;;;;;;;;;;;;;;5104075;27;4471;-63
2023/03/27 02:42:15;;;;;;;;;;;;;;;;;;5082757;28;4956;-63
2023/03/27 02:44:50;;;;;;;;;;;;;;;;;;5076363;28;4644;-64
2023/03/27 02:47:21;;;;;;;;;;;;;;;;;;5101211;27;4530;-66
2023/03/27 02:49:55;;;;;;;;;;;;;;;;;;5072749;28;1042;-64
2023/03/27 02:52:30;;;;;;;;;;;;;;;;;;5111644;27;5021;-63
2023/03/27 02:55:05;;;;;;;;;;;;;;;;;;5078222;28;4981;-63
2023/03/27 02:57:30;;;;;;;;;;;;;;;;;;5105389;27;4446;-63
2023/03/27 02:59:56;;;;;;;;;;;;;;;;;;5109479;27;4483;-63
2023/03/27 03:02:23;;;;;;;;;;;;;;;;;;5071734;27;4694;-63
2023/03/27 03:05:02;;;;;;;;;;;;;;;;;;5085349;28;4924;-63
2023/03/27 03:07:28;;;;;;;;;;;;;;;;;;5061006;28;5024;-63
2023/03/27 03:09:53;;;;;;;;;;;;;;;;;;5075495;28;5000;-64
2023/03/27 03:12:18;;;;;;;;;;;;;;;;;;5077327;28;4547;-62
2023/03/27 03:14:44;;;;;;;;;;;;;;;;;;5083570;28;4725;-63
2023/03/27 03:17:10;;;;;;;;;;;;;;;;;;5075381;28;4478;-63
2023/03/27 03:19:35;;;;;;;;;;;;;;;;;;5072473;28;1140;-63
2023/03/27 03:22:01;;;;;;;;;;;;;;;;;;5078376;28;5100;-62
2023/03/27 03:24:26;;;;;;;;;;;;;;;;;;5081254;28;4633;-63
2023/03/27 03:26:51;;;;;;;;;;;;;;;;;;5079966;28;5091;-62
2023/03/27 03:29:18;;;;;;;;;;;;;;;;;;5073648;28;5123;-63
2023/03/27 03:31:43;;;;;;;;;;;;;;;;;;5071314;28;1175;-61
2023/03/27 03:34:13;;;;;;;;;;;;;;;;;;5104116;27;4936;-62
2023/03/27 03:36:40;;;;;;;;;;;;;;;;;;5074257;28;4654;-62
2023/03/27 03:39:06;;;;;;;;;;;;;;;;;;5070110;28;4495;-63
2023/03/27 03:41:31;;;;;;;;;;;;;;;;;;5071928;28;5176;-63
2023/03/27 03:43:56;;;;;;;;;;;;;;;;;;5072454;28;4616;-63
2023/03/27 03:46:21;;;;;;;;;;;;;;;;;;5079532;28;2260;-64
2023/03/27 03:48:47;;;;;;;;;;;;;;;;;;5086100;28;4456;-62
2023/03/27 03:51:12;;;;;;;;;;;;;;;;;;5069956;28;4487;-63
2023/03/27 03:53:37;;;;;;;;;;;;;;;;;;5072713;28;4461;-63
2023/03/27 03:56:02;;;;;;;;;;;;;;;;;;5071802;28;5057;-63
2023/03/27 03:58:28;;;;;;;;;;;;;;;;;;5066175;28;1375;-63
2023/03/27 04:00:53;;;;;;;;;;;;;;;;;;5075601;28;4849;-63
2023/03/27 04:03:19;;;;;;;;;;;;;;;;;;5074598;28;4569;-63
2023/03/27 04:05:44;;;;;;;;;;;;;;;;;;5071169;28;4819;-63
2023/03/27 04:08:10;;;;;;;;;;;;;;;;;;5069058;28;4491;-62
2023/03/27 04:10:38;;;;;;;;;;;;;;;;;;5085717;28;1192;-64
2023/03/27 04:13:04;;;;;;;;;;;;;;;;;;5071975;28;4897;-64
2023/03/27 04:15:29;;;;;;;;;;;;;;;;;;5077947;28;4811;-63
2023/03/27 04:17:56;;;;;;;;;;;;;;;;;;5063720;28;5340;-63
2023/03/27 04:20:25;;;;;;;;;;;;;;;;;;5065829;28;5563;-64
2023/03/27 04:22:50;;;;;;;;;;;;;;;;;;5060220;28;3431;-63
2023/03/27 04:25:16;;;;;;;;;;;;;;;;;;5070904;28;4417;-63
2023/03/27 04:27:44;;;;;;;;;;;;;;;;;;5063361;28;4473;-65
2023/03/27 04:30:14;;;;;;;;;;;;;;;;;;5066143;28;5213;-65
2023/03/27 04:32:39;;;;;;;;;;;;;;;;;;5066325;28;4674;-66
2023/03/27 04:35:05;;;;;;;;;;;;;;;;;;5059606;28;4556;-65
2023/03/27 04:37:30;;;;;;;;;;;;;;;;;;5067279;28;3297;-62
2023/03/27 04:39:57;;;;;;;;;;;;;;;;;;5064218;28;4711;-61
2023/03/27 04:42:22;;;;;;;;;;;;;;;;;;5063901;28;4521;-62
2023/03/27 04:44:48;;;;;;;;;;;;;;;;;;5064050;28;4560;-66
2023/03/27 04:47:13;;;;;;;;;;;;;;;;;;5070478;28;5223;-66
2023/03/27 04:49:49;;;;;;;;;;;;;;;;;;5073863;28;1152;-65
2023/03/27 04:52:14;;;;;;;;;;;;;;;;;;5075403;28;4427;-65
2023/03/27 04:54:40;;;;;;;;;;;;;;;;;;5077807;28;4426;-66
2023/03/27 04:57:06;;;;;;;;;;;;;;;;;;5072284;28;4652;-65
2023/03/27 04:59:31;;;;;;;;;;;;;;;;;;5066103;28;4502;-63
2023/03/27 05:01:57;;;;;;;;;;;;;;;;;;5073842;28;4977;-63
2023/03/27 05:04:25;;;;;;;;;;;;;;;;;;5078180;28;4630;-65
2023/03/27 05:06:51;;;;;;;;;;;;;;;;;;5084663;28;4940;-67
2023/03/27 05:09:16;;;;;;;;;;;;;;;;;;5079187;28;5265;-58
2023/03/27 05:11:43;;;;;;;;;;;;;;;;;;5082454;28;4744;-66
2023/03/27 05:14:08;;;;;;;;;;;;;;;;;;5084716;28;4596;-64
2023/03/27 05:16:34;;;;;;;;;;;;;;;;;;5084470;28;2343;-64
2023/03/27 05:19:02;;;;;;;;;;;;;;;;;;5113712;27;4721;-60
2023/03/27 05:21:27;;;;;;;;;;;;;;;;;;5078218;28;4964;-66
2023/03/27 05:23:52;;;;;;;;;;;;;;;;;;5072634;28;5080;-67
2023/03/27 05:26:18;;;;;;;;;;;;;;;;;;5073635;28;5142;-66
2023/03/27 05:28:43;;;;;;;;;;;;;;;;;;5069781;28;1464;-68
2023/03/27 05:31:09;;;;;;;;;;;;;;;;;;5077759;28;4956;-70
2023/03/27 05:33:34;;;;;;;;;;;;;;;;;;5070471;28;4458;-68
2023/03/27 05:36:04;;;;;;;;;;;;;;;;;;5106388;27;5304;-66
2023/03/27 05:38:30;;;;;;;;;;;;;;;;;;5075248;28;4470;-68
2023/03/27 05:40:55;;;;;;;;;;;;;;;;;;5071895;28;5081;-67
2023/03/27 05:43:20;;;;;;;;;;;;;;;;;;5073786;28;1985;-67
2023/03/27 05:45:46;;;;;;;;;;;;;;;;;;5075673;28;4462;-68
2023/03/27 05:48:11;;;;;;;;;;;;;;;;;;5071615;28;4471;-69
2023/03/27 05:50:36;;;;;;;;;;;;;;;;;;5072880;28;5013;-67
2023/03/27 05:53:08;;;;;;;;;;;;;;;;;;5070045;28;4619;-65
2023/03/27 05:55:33;;;;;;;;;;;;;;;;;;5069780;28;1748;-62
2023/03/27 05:57:59;;;;;;;;;;;;;;;;;;5063561;28;4581;-68
2023/03/27 06:00:25;;;;;;;;;;;;;;;;;;5081107;28;4524;-66
2023/03/27 06:02:57;;;;;;;;;;;;;;;;;;5106688;27;4910;-68
2023/03/27 06:05:22;;;;;;;;;;;;;;;;;;5065351;28;4699;-66
2023/03/27 06:07:47;;;;;;;;;;;;;;;;;;5079460;28;1402;-68
2023/03/27 06:10:13;;;;;;;;;;;;;;;;;;5076666;28;4410;-68
2023/03/27 06:12:38;;;;;;;;;;;;;;;;;;5075304;28;4409;-67
2023/03/27 06:15:04;;;;;;;;;;;;;;;;;;5074297;28;5116;-67
2023/03/27 06:17:29;;;;;;;;;;;;;;;;;;5055633;28;4474;-69
2023/03/27 06:19:55;;;;;;;;;;;;;;;;;;5070607;28;6084;-64
2023/03/27 06:22:21;;;;;;;;;;;;;;;;;;5067154;28;3119;-66
2023/03/27 06:24:46;;;;;;;;;;;;;;;;;;5072408;28;4454;-59
2023/03/27 06:27:12;;;;;;;;;;;;;;;;;;5068740;28;4499;-61
2023/03/27 06:29:37;;;;;;;;;;;;;;;;;;5073639;28;5132;-66
2023/03/27 06:32:03;;;;;;;;;;;;;;;;;;5074690;28;5013;-67
2023/03/27 06:34:28;;;;;;;;;;;;;;;;;;5075331;28;1206;-68
2023/03/27 06:36:53;;;;;;;;;;;;;;;;;;5072256;28;4602;-64
2023/03/27 06:39:19;;;;;;;;;;;;;;;;;;5070609;28;5727;-67
2023/03/27 06:41:44;;;;;;;;;;;;;;;;;;5076696;28;4471;-67
2023/03/27 06:44:09;;;;;;;;;;;;;;;;;;5079068;28;4455;-69
2023/03/27 06:46:35;;;;;;;;;;;;;;;;;;5075454;28;3184;-68
2023/03/27 06:49:00;;;;;;;;;;;;;;;;;;5066071;28;4994;-66
2023/03/27 06:51:26;;;;;;;;;;;;;;;;;;5075422;28;4478;-64
2023/03/27 06:53:52;;;;;;;;;;;;;;;;;;5080301;28;4549;-64
2023/03/27 06:56:17;;;;;;;;;;;;;;;;;;5069588;28;4715;-56
2023/03/27 06:58:42;;;;;;;;;;;;;;;;;;5080631;28;2213;-68
2023/03/27 07:01:08;;;;;;;;;;;;;;;;;;5074744;28;4443;-68
2023/03/27 07:03:33;;;;;;;;;;;;;;;;;;5082258;28;5067;-69
2023/03/27 07:05:59;;;;;;;;;;;;;;;;;;5073022;28;4934;-66
2023/03/27 07:08:24;;;;;;;;;;;;;;;;;;5078354;28;5200;-61
2023/03/27 07:10:50;;;;;;;;;;;;;;;;;;5076887;28;3310;-60
2023/03/27 07:13:16;;;;;;;;;;;;;;;;;;5076710;28;4636;-62
2023/03/27 07:15:41;;;;;;;;;;;;;;;;;;5068437;28;4423;-62
2023/03/27 07:18:07;;;;;;;;;;;;;;;;;;5067925;28;5011;-62
2023/03/27 07:20:33;;;;;;;;;;;;;;;;;;5073361;28;4685;-62
2023/03/27 07:22:58;;;;;;;;;;;;;;;;;;5076361;28;5072;-61
2023/03/27 07:25:26;;;;;;;;;;;;;;;;;;5075270;28;1192;-62
2023/03/27 07:27:56;;;;;;;;;;;;;;;;;;5069326;28;5334;-61
2023/03/27 07:30:21;;;;;;;;;;;;;;;;;;5066720;28;4484;-60
2023/03/27 07:32:47;;;;;;;;;;;;;;;;;;5073525;28;5245;-60
2023/03/27 07:35:13;;;;;;;;;;;;;;;;;;5067556;28;4528;-62
2023/03/27 07:37:39;;;;;;;;;;;;;;;;;;5072745;28;1234;-62
2023/03/27 07:40:05;;;;;;;;;;;;;;;;;;5068428;28;4426;-59
2023/03/27 07:42:31;;;;;;;;;;;;;;;;;;5051741;28;4746;-63
2023/03/27 07:44:56;;;;;;;;;;;;;;;;;;5075352;28;4623;-60
2023/03/27 07:47:21;;;;;;;;;;;;;;;;;;5070433;28;5088;-62
2023/03/27 07:49:47;;;;;;;;;;;;;;;;;;5074864;28;1276;-61
2023/03/27 07:52:12;;;;;;;;;;;;;;;;;;5077289;28;4930;-62
2023/03/27 07:54:37;;;;;;;;;;;;;;;;;;5068853;28;4428;-62
2023/03/27 07:57:03;;;;;;;;;;;;;;;;;;5065561;28;4499;-62
2023/03/27 07:59:29;;;;;;;;;;;;;;;;;;5065772;28;4805;-60
2023/03/27 08:01:54;;;;;;;;;;;;;;;;;;5067421;28;4487;-62
2023/03/27 08:04:20;;;;;;;;;;;;;;;;;;5065247;28;4776;-60
2023/03/27 08:06:45;;;;;;;;;;;;;;;;;;5067759;28;4461;-61
2023/03/27 08:09:10;;;;;;;;;;;;;;;;;;5082963;28;4640;-60
2023/03/27 08:11:40;;;;;;;;;;;;;;;;;;5062827;28;5063;-61
2023/03/27 08:14:05;;;;;;;;;;;;;;;;;;5064288;28;4802;-60
2023/03/27 08:16:31;;;;;;;;;;;;;;;;;;5068947;28;1246;-61
2023/03/27 08:18:56;;;;;;;;;;;;;;;;;;5067243;28;5517;-61
2023/03/27 08:21:22;;;;;;;;;;;;;;;;;;5067295;28;4674;-61
2023/03/27 08:23:47;;;;;;;;;;;;;;;;;;5058607;28;4650;-60
2023/03/27 08:26:13;;;;;;;;;;;;;;;;;;5076073;28;4865;-61
2023/03/27 08:28:38;;;;;;;;;;;;;;;;;;5066222;28;1384;-61
2023/03/27 08:31:08;;;;;;;;;;;;;;;;;;5071500;28;4957;-61
2023/03/27 08:33:34;;;;;;;;;;;;;;;;;;5062970;28;5376;-60
2023/03/27 08:35:59;;;;;;;;;;;;;;;;;;5071337;28;4680;-59
2023/03/27 08:38:27;;;;;;;;;;;;;;;;;;5066385;28;5098;-62
2023/03/27 08:40:53;;;;;;;;;;;;;;;;;;5063675;28;4616;-60
2023/03/27 08:43:22;;;;;;;;;;;;;;;;;;5071312;28;1926;-61
2023/03/27 08:46:00;;;;;;;;;;;;;;;;;;5104181;27;4501;-59
2023/03/27 08:48:43;;;;;;;;;;;;;;;;;;5071090;28;5046;-63
2023/03/27 08:51:09;;;;;;;;;;;;;;;;;;5097883;28;4558;-61
2023/03/27 08:53:39;;;;;;;;;;;;;;;;;;5085646;28;4733;-62
2023/03/27 08:56:05;;;;;;;;;;;;;;;;;;5069119;28;4460;-61
2023/03/27 08:58:32;;;;;;;;;;;;;;;;;;5062199;28;1447;-63
2023/03/27 09:00:57;;;;;;;;;;;;;;;;;;5070039;28;4639;-62
2023/03/27 09:03:27;;;;;;;;;;;;;;;;;;5070570;28;4991;-63
2023/03/27 09:06:02;;;;;;;;;;;;;;;;;;5100395;28;5086;-62
2023/03/27 09:08:31;;;;;;;;;;;;;;;;;;5053263;28;5177;-62
2023/03/27 09:11:04;;;;;;;;;;;;;;;;;;5102944;28;5003;-63
2023/03/27 09:13:38;;;;;;;;;;;;;;;;;;5085700;28;1099;-63
2023/03/27 09:16:04;;;;;;;;;;;;;;;;;;5069912;28;4614;-62
2023/03/27 09:18:32;;;;;;;;;;;;;;;;;;5064282;28;5107;-62
2023/03/27 09:21:09;;;;;;;;;;;;;;;;;;5102103;28;4503;-62
2023/03/27 09:23:41;;;;;;;;;;;;;;;;;;5098649;28;5100;-60
2023/03/27 09:26:08;;;;;;;;;;;;;;;;;;5061906;28;4648;-61
2023/03/27 09:28:35;;;;;;;;;;;;;;;;;;5096010;28;1303;-59
2023/03/27 09:31:21;;;;;;;;;;;;;;;;;;5068411;28;4476;-61
2023/03/27 09:33:46;;;;;;;;;;;;;;;;;;5067120;28;5274;-58
2023/03/27 09:36:11;;;;;;;;;;;;;;;;;;5084050;28;4797;-61
2023/03/27 09:38:38;;;;;;;;;;;;;;;;;;5069738;28;4505;-61
2023/03/27 09:41:05;;;;;;;;;;;;;;;;;;5101815;28;4483;-61
2023/03/27 09:43:40;;;;;;;;;;;;;;;;;;5068859;28;1999;-60
2023/03/27 09:46:06;;;;;;;;;;;;;;;;;;5069733;28;4767;-61
2023/03/27 09:48:35;;;;;;;;;;;;;;;;;;5068531;28;5058;-61
2023/03/27 09:51:01;;;;;;;;;;;;;;;;;;5069340;28;5450;-61
2023/03/27 09:53:27;;;;;;;;;;;;;;;;;;5062993;28;5380;-61
2023/03/27 09:56:02;;;;;;;;;;;;;;;;;;5069320;28;4610;-60
2023/03/27 09:58:29;;;;;;;;;;;;;;;;;;5095501;28;2101;-61
2023/03/27 10:01:14;;;;;;;;;;;;;;;;;;5068687;28;4680;-61
2023/03/27 10:03:42;;;;;;;;;;;;;;;;;;5066519;28;4509;-62
2023/03/27 10:06:08;;;;;;;;;;;;;;;;;;5068165;28;4445;-60
2023/03/27 10:08:39;;;;;;;;;;;;;;;;;;5068810;28;5033;-61
2023/03/27 10:11:05;;;;;;;;;;;;;;;;;;5100122;28;4544;-60
2023/03/27 10:13:30;;;;;;;;;;;;;;;;;;5069295;28;1122;-60
2023/03/27 10:15:59;;;;;;;;;;;;;;;;;;5068953;28;4425;-61
2023/03/27 10:18:28;;;;;;;;;;;;;;;;;;5068509;28;5215;-61
2023/03/27 10:20:54;;;;;;;;;;;;;;;;;;5063328;28;4466;-62
2023/03/27 10:23:23;;;;;;;;;;;;;;;;;;5100901;28;5160;-62
2023/03/27 10:25:49;;;;;;;;;;;;;;;;;;5101870;28;1091;-62
2023/03/27 10:28:14;;;;;;;;;;;;;;;;;;5064001;28;5085;-61
2023/03/27 10:30:39;;;;;;;;;;;;;;;;;;5060269;28;5065;-61
2023/03/27 10:33:06;;;;;;;;;;;;;;;;;;5065223;28;4973;-62
2023/03/27 10:35:33;;;;;;;;;;;;;;;;;;5101039;28;5043;-60
2023/03/27 10:37:59;;;;;;;;;;;;;;;;;;5065915;28;5112;-62
2023/03/27 10:40:25;;;;;;;;;;;;;;;;;;5069224;28;1095;-61
2023/03/27 10:42:50;;;;;;;;;;;;;;;;;;5072099;28;4996;-63
2023/03/27 10:45:16;;;;;;;;;;;;;;;;;;5100916;28;4665;-62
2023/03/27 10:47:44;;;;;;;;;;;;;;;;;;5049244;28;4907;-61
2023/03/27 10:50:12;;;;;;;;;;;;;;;;;;5068349;28;5079;-61
2023/03/27 10:52:59;;;;;;;;;;;;;;;;;;5067266;28;1241;-64
2023/03/27 10:55:35;;;;;;;;;;;;;;;;;;5098280;28;4473;-62
2023/03/27 10:58:04;;;;;;;;;;;;;;;;;;5094784;28;4801;-66
2023/03/27 11:00:39;;;;;;;;;;;;;;;;;;5099384;28;4673;-62
2023/03/27 11:03:24;;;;;;;;;;;;;;;;;;5067132;28;4692;-64
2023/03/27 11:05:52;;;;;;;;;;;;;;;;;;5062817;28;4812;-61
2023/03/27 11:08:22;;;;;;;;;;;;;;;;;;5099861;28;4467;-62
2023/03/27 11:10:49;;;;;;;;;;;;;;;;;;5069204;28;1186;-63
2023/03/27 11:13:22;;;;;;;;;;;;;;;;;;5094238;28;5399;-63
2023/03/27 11:15:47;;;;;;;;;;;;;;;;;;5098521;28;4898;-64
2023/03/27 11:18:25;;;;;;;;;;;;;;;;;;5062476;28;4668;-59
2023/03/27 11:20:55;;;;;;;;;;;;;;;;;;5068244;28;4555;-61
2023/03/27 11:23:31;;;;;;;;;;;;;;;;;;5097261;28;4911;-61
2023/03/27 11:25:58;;;;;;;;;;;;;;;;;;5100123;28;4997;-62
2023/03/27 11:28:27;;;;;;;;;;;;;;;;;;5064881;28;1379;-61
2023/03/27 11:30:55;;;;;;;;;;;;;;;;;;5077458;28;4543;-61
2023/03/27 11:33:28;;;;;;;;;;;;;;;;;;5065138;28;4475;-61
2023/03/27 11:36:06;;;;;;;;;;;;;;;;;;5098417;28;4470;-61
2023/03/27 11:38:33;;;;;;;;;;;;;;;;;;5067517;28;4459;-61
2023/03/27 11:40:58;;;;;;;;;;;;;;;;;;5098149;28;4699;-61
2023/03/27 11:43:23;;;;;;;;;;;;;;;;;;5060013;28;1910;-61
2023/03/27 11:45:54;;;;;;;;;;;;;;;;;;5067564;28;4803;-60
2023/03/27 11:48:22;;;;;;;;;;;;;;;;;;5064292;28;4424;-62
2023/03/27 11:50:51;;;;;;;;;;;;;;;;;;5066221;28;4642;-61
2023/03/27 11:53:20;;;;;;;;;;;;;;;;;;5067923;28;4687;-62
2023/03/27 11:55:48;;;;;;;;;;;;;;;;;;5067649;28;1211;-62
2023/03/27 11:58:16;;;;;;;;;;;;;;;;;;5062384;28;4603;-60
2023/03/27 12:00:50;;;;;;;;;;;;;;;;;;5101497;28;5088;-60
2023/03/27 12:03:33;;;;;;;;;;;;;;;;;;5077837;28;4571;-59
2023/03/27 12:05:58;;;;;;;;;;;;;;;;;;5102364;28;4911;-61
2023/03/27 12:08:23;;;;;;;;;;;;;;;;;;5063209;28;4430;-61
2023/03/27 12:10:49;;;;;;;;;;;;;;;;;;5068850;28;1201;-60
2023/03/27 12:13:23;;;;;;;;;;;;;;;;;;5071811;28;4831;-62
2023/03/27 12:16:02;;;;;;;;;;;;;;;;;;5071278;28;4876;-60
2023/03/27 12:18:30;;;;;;;;;;;;;;;;;;5101103;28;4846;-62
2023/03/27 12:21:14;;;;;;;;;;;;;;;;;;5072009;28;4985;-62
2023/03/27 12:23:51;;;;;;;;;;;;;;;;;;5071191;28;4487;-61
2023/03/27 12:26:20;;;;;;;;;;;;;;;;;;5094257;28;4469;-62
2023/03/27 12:28:52;;;;;;;;;;;;;;;;;;5103463;28;1419;-63
2023/03/27 12:31:24;;;;;;;;;;;;;;;;;;5102462;28;5122;-63
2023/03/27 12:33:52;;;;;;;;;;;;;;;;;;5070679;28;5004;-61
2023/03/27 12:36:18;;;;;;;;;;;;;;;;;;5067100;28;4595;-60
2023/03/27 12:38:43;;;;;;;;;;;;;;;;;;5101801;28;4792;-60
2023/03/27 12:41:24;;;;;;;;;;;;;;;;;;5066890;28;5110;-61
2023/03/27 12:43:57;;;;;;;;;;;;;;;;;;5064282;28;1976;-61
2023/03/27 12:46:22;;;;;;;;;;;;;;;;;;5069502;28;4991;-62
2023/03/27 12:48:50;;;;;;;;;;;;;;;;;;5063564;28;4910;-62
2023/03/27 12:51:19;;;;;;;;;;;;;;;;;;5067324;28;4997;-62
2023/03/27 12:53:45;;;;;;;;;;;;;;;;;;5066058;28;4476;-62
2023/03/27 12:56:16;;;;;;;;;;;;;;;;;;5067426;28;4700;-61
2023/03/27 12:58:51;;;;;;;;;;;;;;;;;;5062475;28;3326;-61
2023/03/27 13:01:26;;;;;;;;;;;;;;;;;;5068231;28;4589;-59
2023/03/27 13:03:54;;;;;;;;;;;;;;;;;;5063638;28;5299;-62
2023/03/27 13:06:21;;;;;;;;;;;;;;;;;;5063983;28;5596;-62
2023/03/27 13:08:49;;;;;;;;;;;;;;;;;;5102006;28;4452;-60
2023/03/27 13:11:27;;;;;;;;;;;;;;;;;;5064458;28;4463;-62
2023/03/27 13:14:04;;;;;;;;;;;;;;;;;;5069796;28;4590;-61
2023/03/27 13:16:59;;;;;;;;;;;;;;;;;;5070472;28;2296;-61
2023/03/27 13:19:36;;;;;;;;;;;;;;;;;;5066578;28;5008;-61
2023/03/27 13:22:17;;;;;;;;;;;;;;;;;;5067403;28;5152;-60
2023/03/27 13:25:01;;;;;;;;;;;;;;;;;;5069858;28;5507;-61
2023/03/27 13:27:36;;;;;;;;;;;;;;;;;;5063600;28;5069;-60
2023/03/27 13:30:01;;;;;;;;;;;;;;;;;;5060615;28;4489;-61
2023/03/27 13:32:37;;;;;;;;;;;;;;;;;;5101271;28;4435;-62
2023/03/27 13:35:08;;;;;;;;;;;;;;;;;;5067902;28;5114;-62
2023/03/27 13:37:36;;;;;;;;;;;;;;;;;;5064089;28;3394;-61
2023/03/27 13:40:17;;;;;;;;;;;;;;;;;;5098013;28;5007;-61
2023/03/27 13:42:42;;;;;;;;;;;;;;;;;;5064875;28;4631;-61
2023/03/27 13:45:08;;;;;;;;;;;;;;;;;;5063067;28;4555;-61
2023/03/27 13:47:33;;;;;;;;;;;;;;;;;;5093941;28;4851;-60
2023/03/27 13:50:15;;;;;;;;;;;;;;;;;;5063177;28;4980;-61
2023/03/27 13:52:43;;;;;;;;;;;;;;;;;;5099418;28;2721;-62
2023/03/27 13:55:15;;;;;;;;;;;;;;;;;;5068694;28;4948;-60
2023/03/27 13:57:41;;;;;;;;;;;;;;;;;;5060061;28;4859;-62
2023/03/27 14:00:07;;;;;;;;;;;;;;;;;;5066764;28;4518;-60
2023/03/27 14:02:38;;;;;;;;;;;;;;;;;;5067197;28;4632;-61
2023/03/27 14:05:09;;;;;;;;;;;;;;;;;;5062076;28;4788;-62
2023/03/27 14:07:46;;;;;;;;;;;;;;;;;;5069054;28;1554;-62
2023/03/27 14:10:30;;;;;;;;;;;;;;;;;;5068428;28;4433;-60
2023/03/27 14:12:58;;;;;;;;;;;;;;;;;;5065561;28;4498;-61
2023/03/27 14:15:29;;;;;;;;;;;;;;;;;;5098317;28;4551;-61
2023/03/27 14:18:07;;;;;;;;;;;;;;;;;;5067129;28;4658;-61
2023/03/27 14:20:39;;;;;;;;;;;;;;;;;;5068327;28;4586;-60
2023/03/27 14:23:13;;;;;;;;;;;;;;;;;;5091679;28;4691;-61
2023/03/27 14:25:38;;;;;;;;;;;;;;;;;;5061221;28;1242;-60
2023/03/27 14:28:04;;;;;;;;;;;;;;;;;;5099462;28;4908;-61
2023/03/27 14:30:45;;;;;;;;;;;;;;;;;;5064551;28;5017;-61
2023/03/27 14:33:14;;;;;;;;;;;;;;;;;;5094466;28;4485;-61
2023/03/27 14:35:40;;;;;;;;;;;;;;;;;;5095404;28;4668;-62
2023/03/27 14:38:15;;;;;;;;;;;;;;;;;;5100472;28;4485;-61
2023/03/27 14:40:46;;;;;;;;;;;;;;;;;;5059194;28;1074;-62
2023/03/27 14:43:11;;;;;;;;;;;;;;;;;;5068366;28;4583;-62
2023/03/27 14:45:38;;;;;;;;;;;;;;;;;;5090807;28;4953;-61
2023/03/27 14:48:24;;;;;;;;;;;;;;;;;;5067759;28;4943;-62
2023/03/27 14:50:52;;;;;;;;;;;;;;;;;;5058954;28;4623;-62
2023/03/27 14:53:18;;;;;;;;;;;;;;;;;;5064374;28;4681;-60
2023/03/27 14:55:43;;;;;;;;;;;;;;;;;;5090852;28;3320;-61
2023/03/27 14:58:11;;;;;;;;;;;;;;;;;;5089752;28;4405;-59
2023/03/27 15:00:38;;;;;;;;;;;;;;;;;;5063954;28;4544;-61
2023/03/27 15:03:14;;;;;;;;;;;;;;;;;;5066507;28;5003;-60
2023/03/27 15:05:53;;;;;;;;;;;;;;;;;;5094391;28;4986;-61
2023/03/27 15:08:21;;;;;;;;;;;;;;;;;;5061915;28;4494;-59
2023/03/27 15:10:49;;;;;;;;;;;;;;;;;;5093994;27;3099;-60
2023/03/27 15:13:15;;;;;;;;;;;;;;;;;;5072432;28;4886;-60
2023/03/27 15:15:41;;;;;;;;;;;;;;;;;;5064743;28;4725;-61
2023/03/27 15:18:23;;;;;;;;;;;;;;;;;;5097657;28;4455;-61
2023/03/27 15:20:51;;;;;;;;;;;;;;;;;;5067639;28;4476;-62
2023/03/27 15:23:21;;;;;;;;;;;;;;;;;;5098867;28;4448;-61
2023/03/27 15:25:54;;;;;;;;;;;;;;;;;;5068301;28;1300;-60
2023/03/27 15:28:24;;;;;;;;;;;;;;;;;;5065900;28;5064;-61
2023/03/27 15:30:53;;;;;;;;;;;;;;;;;;5091849;28;4628;-62
2023/03/27 15:33:33;;;;;;;;;;;;;;;;;;5065555;28;4473;-61
2023/03/27 15:35:59;;;;;;;;;;;;;;;;;;5070430;28;4507;-60
2023/03/27 15:38:27;;;;;;;;;;;;;;;;;;5099565;28;4853;-61
2023/03/27 15:40:58;;;;;;;;;;;;;;;;;;5097067;28;4819;-60
2023/03/27 15:43:24;;;;;;;;;;;;;;;;;;5062357;28;1984;-61
2023/03/27 15:45:53;;;;;;;;;;;;;;;;;;5099347;28;4421;-62
2023/03/27 15:48:34;;;;;;;;;;;;;;;;;;5064302;28;4692;-61
2023/03/27 15:51:00;;;;;;;;;;;;;;;;;;5068845;28;4395;-61
2023/03/27 15:53:44;;;;;;;;;;;;;;;;;;5060779;28;5193;-62
2023/03/27 15:56:12;;;;;;;;;;;;;;;;;;5068830;28;4958;-62
2023/03/27 15:58:46;;;;;;;;;;;;;;;;;;5067121;28;1430;-62
2023/03/27 16:01:19;;;;;;;;;;;;;;;;;;5073196;28;4503;-61
2023/03/27 16:03:46;;;;;;;;;;;;;;;;;;5066211;28;4777;-62
2023/03/27 16:06:12;;;;;;;;;;;;;;;;;;5067777;28;4807;-61
2023/03/27 16:08:37;;;;;;;;;;;;;;;;;;5105889;28;4456;-60
2023/03/27 16:11:03;;;;;;;;;;;;;;;;;;5075544;28;4444;-60
2023/03/27 16:13:36;;;;;;;;;;;;;;;;;;5065821;28;3314;-62
2023/03/27 16:16:05;;;;;;;;;;;;;;;;;;5073026;28;4535;-62
2023/03/27 16:18:32;;;;;;;;;;;;;;;;;;5075086;28;4989;-61
2023/03/27 16:21:07;;;;;;;;;;;;;;;;;;5100598;28;4464;-61
2023/03/27 16:23:33;;;;;;;;;;;;;;;;;;5057501;28;5387;-60
2023/03/27 16:25:58;;;;;;;;;;;;;;;;;;5064069;28;4508;-63
2023/03/27 16:28:28;;;;;;;;;;;;;;;;;;5102314;28;3206;-63
2023/03/27 16:30:53;;;;;;;;;;;;;;;;;;5066624;28;4588;-61
2023/03/27 16:33:20;;;;;;;;;;;;;;;;;;5052322;28;4663;-61
2023/03/27 16:35:45;;;;;;;;;;;;;;;;;;5101566;28;4744;-58
2023/03/27 16:38:10;;;;;;;;;;;;;;;;;;5069530;28;4770;-61
2023/03/27 16:40:35;;;;;;;;;;;;;;;;;;5071882;28;3211;-61
2023/03/27 16:43:01;;;;;;;;;;;;;;;;;;5061234;28;5303;-62
2023/03/27 16:45:26;;;;;;;;;;;;;;;;;;5064221;28;4479;-64
2023/03/27 16:47:51;;;;;;;;;;;;;;;;;;5101610;28;4482;-62
2023/03/27 16:50:18;;;;;;;;;;;;;;;;;;5070633;28;5125;-62
2023/03/27 16:52:43;;;;;;;;;;;;;;;;;;5069513;28;1374;-63
2023/03/27 16:55:08;;;;;;;;;;;;;;;;;;5067971;28;4925;-63
2023/03/27 16:57:34;;;;;;;;;;;;;;;;;;5063121;28;4450;-63
2023/03/27 17:00:00;;;;;;;;;;;;;;;;;;5069782;28;4617;-63
2023/03/27 17:02:25;;;;;;;;;;;;;;;;;;5064388;28;4981;-64
2023/03/27 17:04:50;;;;;;;;;;;;;;;;;;5066057;28;4726;-63
2023/03/27 17:07:16;;;;;;;;;;;;;;;;;;5069486;28;4580;-64
2023/03/27 17:09:41;;;;;;;;;;;;;;;;;;5069027;28;5050;-62
2023/03/27 17:12:08;;;;;;;;;;;;;;;;;;5067178;28;5040;-62
2023/03/27 17:14:34;;;;;;;;;;;;;;;;;;5069408;28;4637;-63